createdAt,value
2023-04-03T00:02:24.915Z,66.80
2023-04-03T00:04:59.322Z,66.80
2023-04-03T00:07:35.462Z,66.80
2023-04-03T00:10:11.199Z,66.80
2023-04-03T00:12:43.227Z,66.80
2023-04-03T00:15:20.950Z,66.70
2023-04-03T00:17:55.985Z,66.70
2023-04-03T00:20:35.283Z,66.70
2023-04-03T00:23:12.241Z,66.70
2023-04-03T00:25:42.664Z,66.80
2023-04-03T00:28:18.699Z,66.80
2023-04-03T00:30:51.107Z,66.80
2023-04-03T00:33:24.905Z,66.70
2023-04-03T00:36:07.419Z,66.80
2023-04-03T00:38:40.335Z,66.80
2023-04-03T00:41:13.125Z,66.80
2023-04-03T00:43:52.218Z,66.70
2023-04-03T00:46:25.822Z,66.80
2023-04-03T00:49:02.332Z,66.90
2023-04-03T00:51:34.803Z,66.90
2023-04-03T00:54:10.093Z,67.00
2023-04-03T00:56:50.314Z,66.90
2023-04-03T00:59:29.717Z,67.00
2023-04-03T01:02:01.771Z,67.00
2023-04-03T01:04:35.623Z,67.20
2023-04-03T01:07:14.522Z,67.20
2023-04-03T01:09:54.403Z,67.20
2023-04-03T01:12:36.273Z,67.10
2023-04-03T01:15:12.518Z,67.10
2023-04-03T01:17:51.204Z,67.30
2023-04-03T01:21:01.616Z,67.30
2023-04-03T01:23:57.836Z,67.30
2023-04-03T01:26:32.179Z,67.10
2023-04-03T01:29:07.733Z,67.10
2023-04-03T01:31:50.513Z,67.10
2023-04-03T01:34:19.431Z,67.30
2023-04-03T01:37:04.387Z,67.30
2023-04-03T01:39:39.068Z,67.50
2023-04-03T01:42:20.695Z,67.70
2023-04-03T01:44:54.504Z,67.70
2023-04-03T01:47:27.114Z,67.60
2023-04-03T01:50:01.476Z,67.70
2023-04-03T01:52:40.395Z,67.70
2023-04-03T01:55:21.103Z,67.90
2023-04-03T01:57:55.850Z,68.00
2023-04-03T02:00:30.433Z,68.00
2023-04-03T02:03:10.348Z,68.10
2023-04-03T02:05:47.871Z,68.20
2023-04-03T02:08:25.114Z,68.20
2023-04-03T02:10:53.940Z,68.10
2023-04-03T02:13:24.809Z,68.20
2023-04-03T02:15:53.048Z,68.20
2023-04-03T02:18:28.021Z,68.10
2023-04-03T02:21:08.304Z,68.20
2023-04-03T02:23:37.901Z,68.20
2023-04-03T02:26:08.635Z,68.30
2023-04-03T02:28:40.623Z,68.30
2023-04-03T02:31:11.680Z,68.50
2023-04-03T02:33:51.033Z,68.60
2023-04-03T02:36:25.592Z,68.70
2023-04-03T02:39:01.969Z,68.70
2023-04-03T02:41:43.876Z,68.70
2023-04-03T02:44:28.764Z,68.70
2023-04-03T02:46:59.554Z,68.60
2023-04-03T02:49:37.854Z,68.60
2023-04-03T02:52:11.207Z,68.70
2023-04-03T02:54:50.279Z,68.80
2023-04-03T02:57:21.955Z,68.90
2023-04-03T02:59:58.634Z,68.90
2023-04-03T03:02:39.005Z,68.90
2023-04-03T03:05:20.545Z,68.90
2023-04-03T03:07:59.892Z,68.90
2023-04-03T03:10:31.631Z,69.00
2023-04-03T03:13:03.724Z,68.90
2023-04-03T03:15:44.188Z,68.90
2023-04-03T03:18:22.939Z,69.00
2023-04-03T03:21:04.446Z,69.10
2023-04-03T03:23:40.176Z,69.20
2023-04-03T03:26:15.502Z,69.20
2023-04-03T03:28:52.321Z,69.40
2023-04-03T03:31:23.493Z,69.40
2023-04-03T03:33:54.168Z,69.60
2023-04-03T03:36:25.943Z,69.60
2023-04-03T03:39:09.711Z,69.70
2023-04-03T03:41:43.669Z,69.70
2023-04-03T03:44:15.323Z,69.80
2023-04-03T03:46:46.193Z,69.80
2023-04-03T03:49:27.163Z,69.90
2023-04-03T03:52:02.890Z,70.00
2023-04-03T03:54:40.939Z,70.10
2023-04-03T03:57:20.921Z,70.20
2023-04-03T03:59:54.026Z,70.30
2023-04-03T04:02:31.880Z,70.40
2023-04-03T04:05:11.775Z,70.40
2023-04-03T04:07:54.075Z,70.70
2023-04-03T04:10:34.416Z,70.70
2023-04-03T04:13:08.324Z,70.80
2023-04-03T04:15:47.354Z,70.90
2023-04-03T04:18:25.821Z,71.00
2023-04-03T04:21:02.231Z,71.20
2023-04-03T04:23:38.872Z,71.30
2023-04-03T04:26:11.613Z,71.50
2023-04-03T04:28:48.422Z,71.60
2023-04-03T04:31:23.053Z,71.90
2023-04-03T04:33:58.317Z,71.80
2023-04-03T04:36:38.826Z,72.00
2023-04-03T04:39:17.184Z,72.00
2023-04-03T04:41:55.079Z,72.40
2023-04-03T04:44:26.753Z,72.40
2023-04-03T04:47:03.493Z,72.70
2023-04-03T04:49:36.502Z,72.40
2023-04-03T04:52:12.024Z,72.30
2023-04-03T04:54:51.910Z,72.30
2023-04-03T04:57:23.400Z,72.40
2023-04-03T04:59:54.302Z,72.40
2023-04-03T05:02:32.376Z,72.40
2023-04-03T05:05:09.621Z,72.50
2023-04-03T05:07:44.915Z,72.70
2023-04-03T05:10:19.290Z,72.70
2023-04-03T05:12:56.430Z,72.60
2023-04-03T05:15:34.488Z,72.60
2023-04-03T05:18:17.948Z,72.60
2023-04-03T05:21:03.035Z,72.60
2023-04-03T05:23:40.274Z,72.60
2023-04-03T05:26:16.186Z,72.60
2023-04-03T05:28:59.841Z,72.60
2023-04-03T05:31:34.455Z,72.60
2023-04-03T05:34:05.477Z,72.60
2023-04-03T05:36:39.102Z,72.60
2023-04-03T05:39:12.550Z,72.50
2023-04-03T05:41:51.013Z,72.50
2023-04-03T05:44:25.840Z,72.60
2023-04-03T05:47:01.606Z,72.60
2023-04-03T05:49:37.008Z,72.30
2023-04-03T05:52:17.818Z,72.40
2023-04-03T05:54:49.608Z,72.30
2023-04-03T05:57:32.333Z,72.20
2023-04-03T06:00:04.515Z,72.10
2023-04-03T06:02:43.204Z,72.10
2023-04-03T06:05:21.722Z,71.90
2023-04-03T06:07:54.409Z,71.90
2023-04-03T06:10:36.241Z,71.80
2023-04-03T06:13:11.744Z,71.90
2023-04-03T06:15:52.135Z,72.10
2023-04-03T06:18:31.321Z,72.00
2023-04-03T06:21:05.933Z,72.00
2023-04-03T06:23:41.661Z,72.00
2023-04-03T06:26:13.489Z,71.90
2023-04-03T06:28:53.342Z,71.90
2023-04-03T06:31:34.170Z,71.80
2023-04-03T06:34:12.750Z,71.90
2023-04-03T06:36:54.012Z,71.90
2023-04-03T06:39:39.189Z,71.80
2023-04-03T06:42:15.959Z,71.60
2023-04-03T06:45:17.082Z,71.80
2023-04-03T06:48:02.678Z,71.80
2023-04-03T06:50:34.423Z,71.70
2023-04-03T06:53:10.369Z,71.70
2023-04-03T06:55:46.977Z,71.50
2023-04-03T06:58:21.704Z,71.70
2023-04-03T07:01:03.746Z,71.60
2023-04-03T07:03:33.424Z,71.50
2023-04-03T07:06:12.670Z,71.50
2023-04-03T07:08:52.983Z,71.40
2023-04-03T07:11:24.015Z,71.40
2023-04-03T07:13:56.474Z,71.20
2023-04-03T07:16:30.737Z,71.20
2023-04-03T07:19:12.302Z,71.10
2023-04-03T07:21:45.608Z,71.20
2023-04-03T07:24:22.261Z,71.20
2023-04-03T07:26:54.446Z,71.30
2023-04-03T07:29:33.618Z,71.20
2023-04-03T07:32:11.086Z,71.20
2023-04-03T07:34:46.436Z,70.90
2023-04-03T07:37:22.239Z,70.90
2023-04-03T07:39:55.523Z,70.90
2023-04-03T07:42:32.706Z,70.90
2023-04-03T07:45:03.027Z,70.90
2023-04-03T07:47:40.920Z,70.50
2023-04-03T07:50:16.403Z,70.70
2023-04-03T07:52:57.960Z,70.30
2023-04-03T07:55:42.481Z,70.20
2023-04-03T07:58:22.543Z,70.10
2023-04-03T08:01:03.265Z,70.10
2023-04-03T08:03:41.542Z,69.90
2023-04-03T08:06:16.414Z,69.70
2023-04-03T08:08:48.163Z,69.80
2023-04-03T08:11:19.073Z,69.90
2023-04-03T08:13:53.641Z,69.90
2023-04-03T08:16:33.293Z,69.90
2023-04-03T08:22:21.181Z,69.50
2023-04-03T08:24:58.552Z,69.30
2023-04-03T08:27:37.350Z,69.50
2023-04-03T08:30:19.680Z,69.70
2023-04-03T08:32:50.175Z,69.00
2023-04-03T08:35:27.342Z,68.70
2023-04-03T08:38:06.395Z,68.70
2023-04-03T08:40:45.502Z,68.60
2023-04-03T08:43:41.706Z,68.60
2023-04-03T08:46:24.484Z,68.50
2023-04-03T08:49:03.064Z,68.50
2023-04-03T08:51:40.902Z,68.50
2023-04-03T08:54:28.939Z,68.40
2023-04-03T08:57:03.048Z,68.20
2023-04-03T08:59:40.422Z,68.10
2023-04-03T09:02:32.294Z,67.70
2023-04-03T09:05:16.963Z,67.90
2023-04-03T09:07:59.811Z,68.10
2023-04-03T09:10:40.572Z,68.20
2023-04-03T09:13:27.771Z,68.20
2023-04-03T09:16:06.755Z,67.80
2023-04-03T09:18:50.138Z,67.90
2023-04-03T09:21:26.855Z,67.80
2023-04-03T09:24:06.935Z,67.50
2023-04-03T09:26:52.932Z,66.80
2023-04-03T09:29:23.754Z,66.60
2023-04-03T09:31:58.991Z,66.30
2023-04-03T09:34:37.621Z,66.50
2023-04-03T09:37:12.053Z,66.70
2023-04-03T09:39:59.852Z,66.70
2023-04-03T09:42:38.009Z,66.30
2023-04-03T09:45:10.996Z,66.00
2023-04-03T09:47:47.700Z,66.00
2023-04-03T09:50:28.613Z,65.90
2023-04-03T09:53:03.922Z,65.60
2023-04-03T09:55:50.732Z,65.30
2023-04-03T09:58:48.895Z,64.80
2023-04-03T10:02:15.076Z,64.70
2023-04-03T10:05:08.944Z,64.50
2023-04-03T10:08:01.777Z,65.00
2023-04-03T10:11:10.767Z,64.90
2023-04-03T10:14:07.882Z,64.70
2023-04-03T10:16:55.147Z,64.30
2023-04-03T10:20:21.689Z,64.20
2023-04-03T10:23:07.994Z,64.10
2023-04-03T10:25:51.753Z,64.30
2023-04-03T10:28:47.616Z,63.90
2023-04-03T10:31:33.396Z,63.10
2023-04-03T10:34:26.821Z,62.70
2023-04-03T10:37:28.279Z,63.20
2023-04-03T10:43:08.654Z,62.60
2023-04-03T10:46:05.003Z,61.90
2023-04-03T10:48:50.160Z,61.60
2023-04-03T10:51:34.727Z,61.30
2023-04-03T10:54:26.087Z,61.20
2023-04-03T10:57:10.911Z,60.80
2023-04-03T10:59:56.738Z,61.00
2023-04-03T11:02:32.792Z,60.40
2023-04-03T11:05:15.171Z,61.40
2023-04-03T11:07:52.915Z,61.00
2023-04-03T11:10:29.457Z,60.70
2023-04-03T11:13:16.877Z,60.20
2023-04-03T11:15:57.238Z,59.20
2023-04-03T11:18:50.611Z,59.00
2023-04-03T11:21:29.280Z,57.70
2023-04-03T11:24:04.889Z,58.40
2023-04-03T11:26:47.868Z,58.90
2023-04-03T11:29:35.558Z,58.30
2023-04-03T11:32:46.129Z,58.50
2023-04-03T11:35:20.066Z,57.80
2023-04-03T11:37:56.047Z,58.10
2023-04-03T11:40:33.827Z,57.90
2023-04-03T11:43:25.254Z,57.60
2023-04-03T11:46:07.359Z,57.60
2023-04-03T11:49:01.813Z,56.60
2023-04-03T11:51:52.561Z,57.20
2023-04-03T11:54:54.320Z,56.70
2023-04-03T11:57:52.947Z,56.40
2023-04-03T12:01:02.098Z,56.40
2023-04-03T12:04:10.677Z,56.50
2023-04-03T12:07:18.511Z,56.20
2023-04-03T12:10:31.572Z,56.40
2023-04-03T12:13:08.412Z,56.10
2023-04-03T12:16:03.090Z,56.50
2023-04-03T12:19:03.872Z,56.30
2023-04-03T12:22:26.125Z,56.40
2023-04-03T12:25:09.861Z,56.20
2023-04-03T12:27:48.974Z,56.20
2023-04-03T12:30:28.381Z,56.40
2023-04-03T12:33:31.590Z,56.30
2023-04-03T12:36:17.798Z,56.20
2023-04-03T12:39:06.873Z,56.10
2023-04-03T12:41:55.579Z,56.20
2023-04-03T12:44:44.508Z,56.30
2023-04-03T12:47:39.129Z,55.50
2023-04-03T12:50:33.804Z,55.60
2023-04-03T12:53:09.444Z,55.70
2023-04-03T12:55:40.620Z,55.70
2023-04-03T12:58:27.157Z,55.90
2023-04-03T13:01:12.840Z,55.70
2023-04-03T13:03:55.049Z,55.70
2023-04-03T13:06:28.288Z,55.40
2023-04-03T13:09:08.197Z,55.20
2023-04-03T13:11:46.473Z,55.20
2023-04-03T13:14:28.791Z,55.20
2023-04-03T13:17:03.287Z,55.60
2023-04-03T13:19:33.577Z,55.50
2023-04-03T13:22:08.079Z,55.20
2023-04-03T13:24:48.023Z,55.00
2023-04-03T13:27:26.104Z,55.00
2023-04-03T13:30:17.974Z,55.00
2023-04-03T13:32:54.250Z,55.20
2023-04-03T13:35:41.770Z,54.80
2023-04-03T13:38:32.964Z,54.60
2023-04-03T13:41:14.408Z,54.30
2023-04-03T13:43:51.908Z,54.30
2023-04-03T13:46:34.699Z,54.40
2023-04-03T13:49:24.610Z,54.20
2023-04-03T13:52:06.463Z,53.20
2023-04-03T13:54:40.590Z,53.20
2023-04-03T13:57:27.288Z,53.40
2023-04-03T14:00:01.168Z,53.40
2023-04-03T14:02:40.899Z,53.70
2023-04-03T14:05:18.126Z,53.50
2023-04-03T14:07:53.003Z,53.50
2023-04-03T14:10:25.908Z,53.50
2023-04-03T14:13:06.880Z,53.60
2023-04-03T14:15:42.012Z,53.40
2023-04-03T14:18:21.119Z,53.20
2023-04-03T14:20:52.224Z,53.00
2023-04-03T14:23:32.376Z,52.70
2023-04-03T14:26:06.311Z,52.80
2023-04-03T14:28:41.042Z,52.50
2023-04-03T14:31:15.485Z,52.70
2023-04-03T14:33:55.507Z,52.40
2023-04-03T14:36:31.153Z,52.40
2023-04-03T14:39:01.978Z,52.40
2023-04-03T14:41:42.190Z,52.20
2023-04-03T14:44:15.106Z,52.10
2023-04-03T14:46:56.208Z,52.20
2023-04-03T14:49:39.177Z,52.30
2023-04-03T14:52:21.120Z,52.00
2023-04-03T14:54:55.693Z,51.70
2023-04-03T14:57:36.706Z,51.90
2023-04-03T15:00:22.801Z,51.90
2023-04-03T15:03:03.184Z,52.00
2023-04-03T15:05:54.817Z,52.10
2023-04-03T15:08:30.836Z,52.10
2023-04-03T15:11:06.216Z,52.20
2023-04-03T15:13:39.229Z,52.40
2023-04-03T15:16:20.811Z,52.00
2023-04-03T15:18:54.261Z,52.10
2023-04-03T15:21:40.127Z,52.10
2023-04-03T15:24:18.624Z,52.20
2023-04-03T15:26:51.851Z,52.30
2023-04-03T15:29:31.055Z,52.00
2023-04-03T15:32:13.417Z,51.80
2023-04-03T15:34:45.115Z,51.60
2023-04-03T15:37:28.191Z,51.20
2023-04-03T15:40:04.710Z,51.70
2023-04-03T15:42:37.029Z,51.80
2023-04-03T15:45:16.167Z,51.90
2023-04-03T15:47:47.932Z,51.70
2023-04-03T15:50:27.625Z,51.50
2023-04-03T15:53:06.043Z,51.30
2023-04-03T15:55:46.269Z,51.30
2023-04-03T15:58:14.420Z,51.50
2023-04-03T16:00:53.423Z,51.50
2023-04-03T16:03:23.574Z,51.70
2023-04-03T16:05:57.418Z,51.90
2023-04-03T16:08:34.316Z,52.10
2023-04-03T16:11:08.317Z,51.90
2023-04-03T16:13:43.616Z,51.80
2023-04-03T16:16:14.578Z,51.60
2023-04-03T16:18:49.770Z,51.50
2023-04-03T16:21:24.199Z,51.50
2023-04-03T16:24:11.544Z,51.50
2023-04-03T16:26:45.474Z,51.70
2023-04-03T16:29:20.261Z,52.00
2023-04-03T16:31:55.382Z,52.20
2023-04-03T16:34:28.924Z,52.30
2023-04-03T16:37:03.057Z,52.40
2023-04-03T16:39:40.741Z,52.40
2023-04-03T16:42:10.745Z,52.50
2023-04-03T16:44:41.036Z,52.60
2023-04-03T16:47:12.652Z,52.50
2023-04-03T16:49:49.889Z,52.80
2023-04-03T16:52:21.677Z,52.90
2023-04-03T16:55:07.491Z,52.90
2023-04-03T16:57:43.786Z,52.60
2023-04-03T17:00:17.695Z,52.60
2023-04-03T17:02:51.445Z,52.70
2023-04-03T17:05:36.659Z,52.90
2023-04-03T17:08:15.122Z,52.80
2023-04-03T17:10:50.291Z,52.90
2023-04-03T17:13:21.731Z,53.00
2023-04-03T17:15:56.462Z,53.00
2023-04-03T17:18:32.175Z,53.10
2023-04-03T17:21:05.009Z,53.10
2023-04-03T17:23:47.584Z,53.10
2023-04-03T17:26:24.878Z,53.40
2023-04-03T17:29:04.708Z,53.40
2023-04-03T17:31:36.708Z,53.40
2023-04-03T17:34:10.218Z,53.20
2023-04-03T17:36:47.114Z,53.20
2023-04-03T17:39:16.059Z,53.40
2023-04-03T17:41:59.370Z,53.50
2023-04-03T17:44:31.415Z,53.60
2023-04-03T17:47:04.140Z,53.50
2023-04-03T17:49:36.920Z,53.60
2023-04-03T17:52:13.078Z,53.70
2023-04-03T17:54:47.159Z,53.70
2023-04-03T17:57:30.778Z,53.70
2023-04-03T18:00:17.865Z,53.70
2023-04-03T18:03:03.604Z,53.80
2023-04-03T18:05:35.358Z,53.80
2023-04-03T18:08:05.663Z,53.90
2023-04-03T18:10:40.584Z,53.90
2023-04-03T18:13:19.622Z,54.00
2023-04-03T18:15:57.614Z,54.20
2023-04-03T18:18:26.049Z,54.20
2023-04-03T18:21:01.960Z,54.20
2023-04-03T18:23:41.084Z,54.30
2023-04-03T18:26:24.381Z,54.40
2023-04-03T18:29:03.169Z,54.40
2023-04-03T18:34:23.929Z,54.60
2023-04-03T18:36:56.284Z,54.70
2023-04-03T18:39:29.903Z,54.80
2023-04-03T18:44:55.191Z,54.90
2023-04-03T18:47:29.398Z,54.90
2023-04-03T18:50:15.867Z,55.00
2023-04-03T18:55:55.389Z,55.00
2023-04-03T18:58:33.154Z,55.10
2023-04-03T19:01:11.723Z,55.20
2023-04-03T19:03:50.561Z,55.20
2023-04-03T19:06:30.913Z,55.30
2023-04-03T19:09:10.197Z,55.30
2023-04-03T19:12:01.500Z,55.30
2023-04-03T19:14:51.287Z,55.30
2023-04-03T19:17:38.587Z,55.40
2023-04-03T19:23:03.449Z,55.40
2023-04-03T19:25:47.481Z,55.50
2023-04-03T19:28:27.280Z,55.60
2023-04-03T19:31:08.848Z,55.70
2023-04-03T19:33:45.360Z,55.70
2023-04-03T19:36:34.170Z,55.80
2023-04-03T19:39:15.938Z,55.80
2023-04-03T19:42:01.433Z,55.90
2023-04-03T19:44:40.195Z,55.90
2023-04-03T19:47:23.353Z,56.10
2023-04-03T19:49:59.355Z,56.00
2023-04-03T19:55:32.214Z,56.10
2023-04-03T19:58:18.744Z,56.30
2023-04-03T20:01:04.543Z,56.30
2023-04-03T20:03:39.396Z,56.40
2023-04-03T20:06:19.492Z,56.40
2023-04-03T20:08:49.767Z,56.50
2023-04-03T20:11:22.356Z,56.50
2023-04-03T20:14:00.111Z,56.70
2023-04-03T20:16:30.945Z,56.80
2023-04-03T20:19:03.399Z,56.80
2023-04-03T20:21:50.984Z,56.90
2023-04-03T20:24:28.771Z,56.90
2023-04-03T20:27:10.464Z,56.90
2023-04-03T20:29:43.281Z,56.90
2023-04-03T20:32:22.646Z,57.00
2023-04-03T20:35:03.466Z,57.10
2023-04-03T20:37:43.307Z,57.10
2023-04-03T20:40:17.947Z,57.20
2023-04-03T20:42:54.388Z,57.20
2023-04-03T20:45:34.569Z,57.20
2023-04-03T20:48:11.706Z,57.20
2023-04-03T20:50:52.385Z,57.20
2023-04-03T20:53:37.092Z,57.10
2023-04-03T20:56:09.359Z,57.20
2023-04-03T20:58:49.324Z,57.30
2023-04-03T21:01:26.127Z,57.40
2023-04-03T21:04:09.516Z,57.40
2023-04-03T21:07:23.256Z,57.40
2023-04-03T21:10:37.609Z,57.40
2023-04-03T21:13:49.832Z,57.50
2023-04-03T21:16:27.709Z,57.60
2023-04-03T21:19:11.088Z,57.60
2023-04-03T21:21:45.583Z,57.70
2023-04-03T21:24:22.385Z,57.70
2023-04-03T21:27:03.571Z,57.70
2023-04-03T21:29:54.624Z,57.70
2023-04-03T21:32:39.112Z,57.70
2023-04-03T21:35:16.826Z,57.70
2023-04-03T21:37:51.307Z,57.70
2023-04-03T21:40:36.824Z,57.70
2023-04-03T21:43:13.708Z,57.70
2023-04-03T21:45:50.938Z,57.70
2023-04-03T21:48:58.965Z,57.80
2023-04-03T21:51:36.567Z,57.80
2023-04-03T21:54:21.312Z,58.10
2023-04-03T21:56:57.806Z,58.10
2023-04-03T21:59:29.136Z,58.10
2023-04-03T22:02:10.794Z,58.10
2023-04-03T22:04:51.703Z,58.10
2023-04-03T22:07:30.674Z,58.20
2023-04-03T22:10:06.491Z,58.10
2023-04-03T22:12:42.953Z,58.10
2023-04-03T22:15:25.223Z,58.10
2023-04-03T22:17:56.137Z,58.20
2023-04-03T22:20:29.267Z,58.40
2023-04-03T22:23:07.044Z,58.40
2023-04-03T22:25:39.388Z,58.40
2023-04-03T22:28:19.270Z,58.40
2023-04-03T22:30:54.562Z,58.40
2023-04-03T22:33:34.117Z,58.40
2023-04-03T22:36:14.434Z,58.50
2023-04-03T22:38:54.204Z,58.60
2023-04-03T22:41:23.840Z,58.70
2023-04-03T22:44:01.580Z,58.70
2023-04-03T22:46:36.806Z,58.80
2023-04-03T22:49:13.694Z,58.80
2023-04-03T22:51:51.159Z,58.90
2023-04-03T22:54:25.382Z,58.90
2023-04-03T22:56:54.656Z,59.00
2023-04-03T22:59:26.064Z,59.00
2023-04-03T23:02:04.693Z,59.10
2023-04-03T23:04:37.329Z,59.10
2023-04-03T23:07:10.274Z,59.20
2023-04-03T23:09:50.422Z,59.30
2023-04-03T23:12:30.555Z,59.30
2023-04-03T23:15:07.985Z,59.50
2023-04-03T23:17:42.685Z,59.60
2023-04-03T23:20:20.668Z,59.60
2023-04-03T23:22:55.121Z,59.70
2023-04-03T23:25:43.542Z,59.70
2023-04-03T23:28:18.412Z,59.80
2023-04-03T23:30:51.229Z,59.80
2023-04-03T23:33:25.289Z,59.90
2023-04-03T23:36:07.312Z,59.90
2023-04-03T23:38:43.425Z,60.00
2023-04-03T23:41:29.669Z,60.10
2023-04-03T23:44:01.334Z,60.10
2023-04-03T23:46:34.971Z,60.20
2023-04-03T23:49:14.192Z,60.20
2023-04-03T23:51:51.632Z,60.30
2023-04-03T23:54:25.319Z,60.30
2023-04-03T23:57:03.588Z,60.40
2023-04-03T23:59:36.975Z,60.50
